Time;durP1;ratioP1;P1;durP2;ratioP2;P2;SDS_P1;SDS_P2;PMS_P1;PMS_P2;Temp;Humidity;BMP_temperature;BMP_pressure;BME280_temperature;BME280_humidity;BME280_pressure;Samples;Min_cycle;Max_cycle;Signal;HPM_P1;HPM_P2
2024/03/03 00:02:10;;;;;;;104.00;56.10;;;;;;;8.86;80.34;100309.79;103202;1314;25403;-59
2024/03/03 00:04:36;;;;;;;110.50;57.20;;;;;;;8.85;80.46;100313.59;102935;1297;22600;-59
2024/03/03 00:07:02;;;;;;;104.70;58.10;;;;;;;8.82;80.57;100311.59;103137;1313;23705;-60
2024/03/03 00:09:28;;;;;;;109.50;56.30;;;;;;;8.81;80.54;100309.21;103248;1307;26677;-59
2024/03/03 00:11:53;;;;;;;103.60;54.50;;;;;;;8.79;80.64;100306.48;103061;1314;24245;-60
2024/03/03 00:14:21;;;;;;;102.70;55.70;;;;;;;8.76;80.65;100302.58;103035;1295;22621;-59
2024/03/03 00:16:47;;;;;;;95.60;52.10;;;;;;;8.75;81.26;100303.45;103187;1313;25053;-58
2024/03/03 00:19:13;;;;;;;107.50;56.00;;;;;;;8.71;81.28;100298.86;103326;1307;22778;-57
2024/03/03 00:21:39;;;;;;;108.70;56.90;;;;;;;8.67;81.37;100293.92;103234;1308;23966;-59
2024/03/03 00:24:05;;;;;;;105.90;56.60;;;;;;;8.66;81.03;100295.84;103091;1292;25457;-59
2024/03/03 00:26:32;;;;;;;115.40;57.80;;;;;;;8.64;81.38;100300.48;103104;1312;24262;-57
2024/03/03 00:28:59;;;;;;;113.20;58.20;;;;;;;8.61;81.38;100300.70;103873;1314;22679;-58
2024/03/03 00:31:24;;;;;;;116.50;59.00;;;;;;;8.57;81.68;100301.79;103345;1314;22704;-60
2024/03/03 00:33:50;;;;;;;107.90;56.00;;;;;;;8.52;81.36;100300.48;103208;1293;25156;-58
2024/03/03 00:36:15;;;;;;;106.80;55.30;;;;;;;8.49;81.46;100296.05;103206;1298;22574;-59
2024/03/03 00:38:41;;;;;;;106.40;56.40;;;;;;;8.46;81.43;100295.57;103130;1313;24279;-59
2024/03/03 00:41:07;;;;;;;107.70;54.40;;;;;;;8.43;81.57;100293.89;103174;1313;22614;-59
2024/03/03 00:43:33;;;;;;;108.60;57.00;;;;;;;8.39;81.48;100295.81;103163;1308;23041;-58
2024/03/03 00:45:58;;;;;;;113.70;59.10;;;;;;;8.38;81.89;100294.98;103224;1297;22612;-59
2024/03/03 00:48:24;;;;;;;104.10;55.60;;;;;;;8.35;81.79;100292.09;103082;1309;22566;-59
2024/03/03 00:50:50;;;;;;;107.00;56.70;;;;;;;8.33;82.43;100291.94;103015;1313;22594;-58
2024/03/03 00:53:15;;;;;;;112.40;57.10;;;;;;;8.28;82.24;100288.22;103027;1309;22921;-60
2024/03/03 00:55:46;;;;;;;112.00;57.80;;;;;;;8.26;82.75;100285.50;103106;1292;25433;-59
2024/03/03 00:58:13;;;;;;;114.90;57.50;;;;;;;8.20;82.56;100281.80;103148;1310;22708;-62
2024/03/03 01:00:39;;;;;;;108.30;54.20;;;;;;;8.16;82.56;100280.98;103090;1315;23038;-58
2024/03/03 01:03:05;;;;;;;109.00;56.60;;;;;;;8.14;82.58;100279.80;103152;1314;22586;-60
2024/03/03 01:05:31;;;;;;;117.60;58.60;;;;;;;8.12;82.80;100276.91;103151;1297;23942;-60
2024/03/03 01:07:56;;;;;;;114.60;58.10;;;;;;;8.08;82.52;100276.10;103144;1314;22572;-58
2024/03/03 01:10:22;;;;;;;124.40;59.40;;;;;;;8.06;82.80;100276.98;103123;1314;24402;-58
2024/03/03 01:12:47;;;;;;;123.40;60.50;;;;;;;8.03;82.98;100275.64;103134;1315;25412;-58
2024/03/03 01:15:13;;;;;;;121.10;61.40;;;;;;;7.99;83.28;100273.61;102900;1308;25664;-59
2024/03/03 01:17:39;;;;;;;114.70;57.80;;;;;;;7.95;82.87;100275.71;103129;1314;22722;-59
2024/03/03 01:20:06;;;;;;;122.60;61.30;;;;;;;7.91;82.93;100273.53;103169;1314;25514;-60
2024/03/03 01:22:32;;;;;;;;;;;;;;;7.89;82.87;100269.77;105373;1314;23229;-60
2024/03/03 01:24:57;;;;;;;112.70;56.50;;;;;;;7.87;82.77;100268.08;103189;1292;22562;-58
2024/03/03 01:27:23;;;;;;;111.80;54.40;;;;;;;7.85;82.88;100268.44;103079;1300;22675;-58
2024/03/03 01:29:48;;;;;;;119.10;59.10;;;;;;;7.81;83.07;100272.44;103141;1313;22773;-60
2024/03/03 01:32:14;;;;;;;107.00;56.40;;;;;;;7.79;82.87;100268.02;103052;1300;23004;-59
2024/03/03 01:34:41;;;;;;;112.70;57.10;;;;;;;7.78;82.93;100266.83;103143;1314;23368;-59
2024/03/03 01:37:06;;;;;;;117.50;59.70;;;;;;;7.76;82.95;100267.02;103120;1298;22615;-57
2024/03/03 01:39:32;;;;;;;120.60;58.60;;;;;;;7.74;83.03;100262.08;102990;1308;25411;-60
2024/03/03 01:41:58;;;;;;;119.50;61.10;;;;;;;7.71;82.89;100258.83;103205;1314;22636;-58
2024/03/03 01:44:23;;;;;;;126.60;62.40;;;;;;;7.69;82.94;100260.73;103159;1310;22568;-58
2024/03/03 01:46:49;;;;;;;127.90;62.10;;;;;;;7.66;82.69;100260.60;103168;1293;22572;-60
2024/03/03 01:49:16;;;;;;;125.90;61.90;;;;;;;7.60;82.92;100256.88;103160;1300;22575;-60
2024/03/03 01:51:41;;;;;;;;;;;;;;;7.55;83.04;100259.69;103347;1300;22692;-59
2024/03/03 01:54:08;;;;;;;127.00;59.70;;;;;;;7.49;83.40;100260.59;103047;1300;22949;-59
2024/03/03 01:56:35;;;;;;;;;;;;;;;7.44;83.21;100258.92;104050;1298;23920;-58
2024/03/03 01:59:02;;;;;;;116.30;58.20;;;;;;;7.39;83.03;100251.77;100976;1308;5003870;-59
2024/03/03 02:01:31;;;;;;;110.90;54.10;;;;;;;7.34;83.27;100249.23;103173;1313;22568;-60
2024/03/03 02:03:57;;;;;;;117.50;59.00;;;;;;;7.28;83.67;100243.98;103788;1313;22601;-56
2024/03/03 02:06:24;;;;;;;115.20;61.80;;;;;;;7.23;83.40;100247.80;103082;1298;22577;-59
2024/03/03 02:08:50;;;;;;;116.40;60.40;;;;;;;7.20;83.55;100245.44;103985;1308;22575;-60
2024/03/03 02:11:16;;;;;;;122.50;58.60;;;;;;;7.14;83.69;100243.09;103137;1308;22872;-58
2024/03/03 02:13:42;;;;;;;114.20;57.00;;;;;;;7.08;83.69;100243.30;103145;1308;22580;-57
2024/03/03 02:16:07;;;;;;;124.10;63.90;;;;;;;7.02;83.74;100240.09;103121;1304;22581;-60
2024/03/03 02:18:33;;;;;;;122.40;62.60;;;;;;;6.98;83.96;100235.32;103180;1314;22743;-58
2024/03/03 02:20:58;;;;;;;118.50;60.30;;;;;;;6.94;84.08;100229.52;103167;1314;22585;-58
2024/03/03 02:23:23;;;;;;;124.20;62.50;;;;;;;6.87;83.91;100229.05;103135;1307;22567;-59
2024/03/03 02:25:49;;;;;;;117.50;58.80;;;;;;;6.83;83.92;100231.83;103184;1315;22578;-57
2024/03/03 02:28:15;;;;;;;116.50;58.00;;;;;;;6.77;84.13;100230.85;103188;1298;22579;-60
2024/03/03 02:30:40;;;;;;;111.10;57.70;;;;;;;6.73;84.45;100227.13;103162;1314;23294;-58
2024/03/03 02:33:06;;;;;;;122.10;61.90;;;;;;;6.67;84.37;100223.05;103156;1315;26576;-59
2024/03/03 02:35:31;;;;;;;119.50;60.70;;;;;;;6.62;84.38;100218.80;103280;1308;25390;-59
2024/03/03 02:37:57;;;;;;;124.10;63.00;;;;;;;6.56;84.56;100221.23;103090;1298;22588;-57
2024/03/03 02:40:23;;;;;;;112.60;58.20;;;;;;;6.53;84.70;100223.83;103190;1314;26632;-56
2024/03/03 02:42:48;;;;;;;121.20;61.00;;;;;;;6.50;84.43;100225.05;103096;1307;22652;-58
2024/03/03 02:45:14;;;;;;;107.20;59.10;;;;;;;6.48;84.42;100220.60;103110;1308;22625;-58
2024/03/03 02:47:39;;;;;;;123.10;60.50;;;;;;;6.44;84.74;100219.26;103155;1299;24320;-60
2024/03/03 02:50:06;;;;;;;118.00;62.00;;;;;;;6.40;84.78;100214.83;103151;1315;22674;-59
2024/03/03 02:52:31;;;;;;;117.20;61.00;;;;;;;6.38;84.71;100215.00;107089;1315;23098;-58
2024/03/03 02:54:57;;;;;;;121.00;60.20;;;;;;;6.38;84.99;100211.23;106961;1309;22243;-59
2024/03/03 02:57:22;;;;;;;114.70;60.20;;;;;;;6.35;85.42;100214.33;107087;1294;22489;-59
2024/03/03 02:59:49;;;;;;;110.70;60.20;;;;;;;6.32;85.23;100215.73;103390;1309;25568;-58
2024/03/03 03:02:15;;;;;;;120.40;60.30;;;;;;;6.30;85.09;100212.30;102986;1315;22595;-57
2024/03/03 03:04:40;;;;;;;114.20;59.90;;;;;;;6.30;85.18;100210.93;107116;1315;22241;-58
2024/03/03 03:07:06;;;;;;;109.80;59.30;;;;;;;6.29;85.27;100212.66;107000;1292;22286;-59
2024/03/03 03:09:32;;;;;;;115.20;60.30;;;;;;;6.28;85.02;100214.20;107063;1313;23125;-58
2024/03/03 03:11:57;;;;;;;112.10;57.50;;;;;;;6.29;85.31;100210.42;107012;1310;22315;-55
2024/03/03 03:14:28;;;;;;;115.00;59.40;;;;;;;6.28;85.70;100206.66;107108;1309;22298;-59
2024/03/03 03:16:53;;;;;;;107.20;56.40;;;;;;;6.24;85.53;100206.52;107146;1313;22257;-60
2024/03/03 03:19:19;;;;;;;122.50;61.10;;;;;;;6.24;85.54;100205.66;107142;1294;22400;-60
2024/03/03 03:21:45;;;;;;;123.90;61.90;;;;;;;6.24;85.82;100210.29;104170;1313;22576;-61
2024/03/03 03:24:10;;;;;;;108.70;59.70;;;;;;;6.28;86.04;100205.46;103121;1314;23319;-59
2024/03/03 03:26:36;;;;;;;118.20;59.30;;;;;;;6.29;86.01;100202.38;103162;1315;25517;-59
2024/03/03 03:29:04;;;;;;;115.80;62.10;;;;;;;6.27;86.01;100201.20;103175;1295;22555;-59
2024/03/03 03:31:30;;;;;;;113.70;62.10;;;;;;;6.22;86.22;100199.19;103184;1307;22646;-59
2024/03/03 03:33:55;;;;;;;119.00;63.30;;;;;;;6.19;86.45;100198.19;103141;1304;22569;-58
2024/03/03 03:36:21;;;;;;;117.90;64.00;;;;;;;6.15;86.65;100204.02;103186;1308;24315;-59
2024/03/03 03:38:46;;;;;;;127.00;65.40;;;;;;;6.13;87.23;100206.42;103152;1295;24131;-59
2024/03/03 03:41:12;;;;;;;119.40;63.60;;;;;;;6.09;86.47;100204.39;103188;1310;22597;-58
2024/03/03 03:43:37;;;;;;;124.30;65.30;;;;;;;6.07;86.15;100207.65;103135;1315;23829;-58
2024/03/03 03:46:03;;;;;;;107.20;57.60;;;;;;;6.03;86.00;100204.42;103112;1315;25456;-57
2024/03/03 03:48:29;;;;;;;118.20;65.10;;;;;;;6.01;85.94;100193.98;103162;1297;22823;-58
2024/03/03 03:50:54;;;;;;;118.40;64.00;;;;;;;5.97;86.41;100197.42;103142;1307;23898;-59
2024/03/03 03:53:21;;;;;;;120.10;62.40;;;;;;;5.96;86.15;100197.08;103200;1308;25385;-58
2024/03/03 03:55:47;;;;;;;120.80;65.30;;;;;;;5.95;86.29;100200.52;105932;1308;22564;-59
2024/03/03 03:58:13;;;;;;;124.40;65.70;;;;;;;5.91;86.75;100205.31;102943;1315;22788;-58
2024/03/03 04:00:38;;;;;;;132.20;68.60;;;;;;;5.90;87.00;100209.94;103136;1315;24139;-59
2024/03/03 04:03:06;;;;;;;127.70;68.50;;;;;;;5.90;86.66;100213.02;103196;1314;26909;-59
2024/03/03 04:05:32;;;;;;;127.50;64.60;;;;;;;5.90;87.11;100212.16;107064;1312;22376;-58
2024/03/03 04:07:57;;;;;;;121.40;67.20;;;;;;;5.90;87.13;100213.19;107059;1293;22316;-60
2024/03/03 04:10:24;;;;;;;128.20;66.80;;;;;;;5.89;86.59;100215.75;107163;1297;22352;-60
2024/03/03 04:12:49;;;;;;;120.00;64.80;;;;;;;5.90;86.99;100212.33;107097;1314;22989;-61
2024/03/03 04:15:15;;;;;;;120.40;65.60;;;;;;;5.92;87.00;100210.78;107042;1310;22368;-58
2024/03/03 04:17:41;;;;;;;113.90;62.60;;;;;;;5.92;86.99;100211.46;106983;1314;22255;-60
2024/03/03 04:20:08;;;;;;;116.30;64.50;;;;;;;5.94;86.81;100210.60;107062;1297;23362;-60
2024/03/03 04:22:34;;;;;;;106.20;59.30;;;;;;;5.96;86.64;100207.86;107103;1314;22306;-60
2024/03/03 04:24:59;;;;;;;106.90;60.00;;;;;;;5.96;86.70;100211.11;107093;1315;22393;-59
2024/03/03 04:27:25;;;;;;;109.70;60.80;;;;;;;5.96;86.63;100213.68;107107;1313;22442;-59
2024/03/03 04:29:51;;;;;;;108.00;60.30;;;;;;;5.96;86.38;100214.70;104566;1298;22611;-58
2024/03/03 04:32:16;;;;;;;108.60;61.20;;;;;;;5.96;86.38;100213.17;103123;1307;22764;-59
2024/03/03 04:34:42;;;;;;;105.40;59.30;;;;;;;5.95;86.34;100212.98;102972;1308;22552;-59
2024/03/03 04:37:08;;;;;;;109.00;62.00;;;;;;;5.95;86.30;100212.83;103158;1308;24284;-58
2024/03/03 04:39:34;;;;;;;110.00;60.40;;;;;;;5.93;86.30;100209.92;103192;1305;22573;-59
2024/03/03 04:42:01;;;;;;;107.50;61.90;;;;;;;5.91;86.22;100209.08;103101;1314;23043;-58
2024/03/03 04:44:28;;;;;;;110.00;63.20;;;;;;;5.89;86.32;100211.80;103152;1314;22587;-58
2024/03/03 04:46:53;;;;;;;119.90;59.20;;;;;;;5.87;86.27;100216.92;103075;1305;22987;-59
2024/03/03 04:49:18;;;;;;;116.10;62.40;;;;;;;5.85;86.49;100216.41;103166;1292;26635;-59
2024/03/03 04:51:44;;;;;;;117.40;64.10;;;;;;;5.83;86.44;100220.87;103215;1314;22691;-58
2024/03/03 04:54:09;;;;;;;118.00;62.10;;;;;;;5.81;86.38;100213.35;103115;1308;22638;-62
2024/03/03 04:56:35;;;;;;;110.50;64.60;;;;;;;5.79;86.90;100213.53;103166;1304;22576;-59
2024/03/03 04:59:00;;;;;;;119.00;64.50;;;;;;;5.77;86.64;100214.05;103167;1315;22811;-60
2024/03/03 05:01:26;;;;;;;116.20;63.90;;;;;;;5.75;86.56;100211.30;103144;1309;23371;-59
2024/03/03 05:03:51;;;;;;;117.60;64.10;;;;;;;5.74;86.71;100210.64;103169;1307;22601;-60
2024/03/03 05:06:18;;;;;;;115.10;63.20;;;;;;;5.72;86.72;100210.48;103149;1308;22568;-60
2024/03/03 05:08:44;;;;;;;113.20;62.20;;;;;;;5.70;86.64;100209.98;103087;1311;22622;-57
2024/03/03 05:11:10;;;;;;;113.40;63.40;;;;;;;5.68;86.52;100214.10;103068;1308;22575;-59
2024/03/03 05:13:35;;;;;;;114.70;65.20;;;;;;;5.67;86.54;100215.81;103172;1314;22586;-59
2024/03/03 05:16:02;;;;;;;106.10;60.30;;;;;;;5.66;86.37;100217.52;102961;1307;25426;-60
2024/03/03 05:18:27;;;;;;;112.50;61.60;;;;;;;5.64;86.51;100215.30;103171;1307;25455;-59
2024/03/03 05:20:53;;;;;;;118.50;64.30;;;;;;;5.62;86.58;100215.31;103227;1298;22732;-60
2024/03/03 05:23:18;;;;;;;112.80;61.50;;;;;;;5.59;86.60;100213.44;103181;1307;26763;-58
2024/03/03 05:25:44;;;;;;;109.40;61.70;;;;;;;5.57;86.67;100211.73;103116;1314;27514;-56
2024/03/03 05:28:10;;;;;;;113.00;64.90;;;;;;;5.55;86.48;100209.00;103169;1314;24363;-60
2024/03/03 05:30:38;;;;;;;110.00;61.60;;;;;;;5.54;86.41;100205.59;103180;1296;24282;-60
2024/03/03 05:33:07;;;;;;;106.50;60.40;;;;;;;5.54;86.56;100199.26;103151;1311;25715;-59
2024/03/03 05:35:33;;;;;;;107.40;61.10;;;;;;;5.54;86.74;100195.33;103853;1312;22647;-59
2024/03/03 05:38:00;;;;;;;108.70;61.50;;;;;;;5.54;86.67;100197.71;103472;1314;25537;-59
2024/03/03 05:40:27;;;;;;;94.30;52.70;;;;;;;5.53;86.59;100196.86;104066;1305;22882;-60
2024/03/03 05:42:53;;;;;;;117.80;63.10;;;;;;;5.53;87.06;100201.14;103136;1308;23276;-60
2024/03/03 05:45:19;;;;;;;112.00;63.40;;;;;;;5.52;87.09;100203.02;103185;1308;25525;-60
2024/03/03 05:47:45;;;;;;;115.10;64.20;;;;;;;5.52;87.07;100209.86;103012;1315;24471;-60
2024/03/03 05:50:10;;;;;;;123.50;68.70;;;;;;;5.55;87.54;100213.10;103083;1294;22571;-59
2024/03/03 05:52:36;;;;;;;132.70;73.50;;;;;;;5.58;87.77;100222.67;103150;1315;22821;-59
2024/03/03 05:55:02;;;;;;;126.40;69.40;;;;;;;5.62;87.84;100223.70;103090;1314;22978;-60
2024/03/03 05:57:29;;;;;;;131.20;72.30;;;;;;;5.65;88.02;100213.42;103162;1310;25164;-58
2024/03/03 05:59:54;;;;;;;138.60;72.40;;;;;;;5.69;88.51;100217.70;103447;1315;22579;-60
2024/03/03 06:02:22;;;;;;;131.50;69.70;;;;;;;5.74;88.69;100221.41;103125;1305;25281;-59
2024/03/03 06:04:47;;;;;;;129.30;71.10;;;;;;;5.77;88.06;100218.84;103071;1312;22614;-59
2024/03/03 06:07:15;;;;;;;135.60;69.70;;;;;;;5.82;87.77;100216.25;103204;1314;22580;-60
2024/03/03 06:09:41;;;;;;;135.80;71.20;;;;;;;5.86;88.46;100212.81;103194;1314;25372;-60
2024/03/03 06:12:07;;;;;;;131.10;70.40;;;;;;;5.90;88.18;100217.98;103136;1305;23366;-59
2024/03/03 06:14:33;;;;;;;130.00;71.00;;;;;;;5.96;88.83;100214.70;103568;1313;22593;-59
2024/03/03 06:16:59;;;;;;;127.40;71.10;;;;;;;6.02;88.65;100213.14;103422;1310;25353;-60
2024/03/03 06:19:24;;;;;;;124.30;68.40;;;;;;;6.08;88.30;100211.06;103123;1311;24464;-58
2024/03/03 06:21:50;;;;;;;134.50;69.70;;;;;;;6.14;88.80;100214.11;103116;1306;25356;-59
2024/03/03 06:24:24;;;;;;;125.70;68.20;;;;;;;6.20;88.95;100214.27;103200;1315;23011;-60
2024/03/03 06:26:50;;;;;;;125.90;67.80;;;;;;;6.27;89.02;100215.91;103055;1315;22565;-59
2024/03/03 06:29:15;;;;;;;119.50;68.20;;;;;;;6.33;88.79;100210.58;103122;1311;22576;-60
2024/03/03 06:31:45;;;;;;;117.90;67.70;;;;;;;6.39;88.66;100216.54;103133;1298;22562;-53
2024/03/03 06:34:11;;;;;;;122.80;67.60;;;;;;;6.44;88.92;100219.08;103257;1315;22575;-57
2024/03/03 06:36:37;;;;;;;113.20;63.60;;;;;;;6.50;88.47;100217.67;103122;1309;22774;-60
2024/03/03 06:39:04;;;;;;;117.90;62.50;;;;;;;6.54;88.32;100221.25;103095;1314;22568;-59
2024/03/03 06:41:30;;;;;;;;;;;;;;;6.61;88.45;100222.08;103100;1315;22831;-59
2024/03/03 06:43:56;;;;;;;111.50;60.80;;;;;;;6.66;89.75;100222.72;103135;1308;25342;-59
2024/03/03 06:46:22;;;;;;;111.50;61.40;;;;;;;6.70;88.62;100220.30;103046;1313;24399;-59
2024/03/03 06:48:47;;;;;;;114.30;62.00;;;;;;;6.77;88.69;100217.48;103129;1314;22579;-59
2024/03/03 06:51:14;;;;;;;107.30;60.10;;;;;;;6.84;88.64;100211.26;103144;1293;25551;-59
2024/03/03 06:53:40;;;;;;;109.50;61.20;;;;;;;6.92;88.48;100214.11;103094;1305;22578;-58
2024/03/03 06:56:17;;;;;;;92.60;58.20;;;;;;;7.02;88.67;100221.41;103179;1308;22568;-59
2024/03/03 06:58:44;;;;;;;96.10;57.60;;;;;;;7.07;88.81;100222.23;104439;1315;22623;-59
2024/03/03 07:01:11;;;;;;;95.90;57.80;;;;;;;7.15;89.01;100223.36;103396;1308;22570;-59
2024/03/03 07:06:08;;;;;;;92.70;55.70;;;;;;;7.23;89.01;100223.46;103118;1311;22595;-59
2024/03/03 07:08:33;;;;;;;90.60;54.90;;;;;;;7.33;88.88;100222.15;103160;1309;24674;-59
2024/03/03 07:10:59;;;;;;;93.50;55.20;;;;;;;7.46;89.08;100227.69;103094;1309;22639;-60
2024/03/03 07:13:24;;;;;;;85.70;52.50;;;;;;;7.58;88.93;100221.73;103092;1308;22752;-59
2024/03/03 07:15:50;;;;;;;84.90;52.10;;;;;;;7.75;88.98;100220.52;103128;1315;22823;-60
2024/03/03 07:18:15;;;;;;;86.10;52.40;;;;;;;7.95;89.16;100220.27;103053;1307;22585;-59
2024/03/03 07:20:41;;;;;;;85.90;51.10;;;;;;;8.13;89.18;100219.04;103150;1314;25491;-59
2024/03/03 07:23:06;;;;;;;85.80;51.40;;;;;;;8.25;89.14;100215.96;102821;1307;22569;-59
2024/03/03 07:25:32;;;;;;;79.60;49.50;;;;;;;8.37;89.08;100214.61;102955;1314;22579;-59
2024/03/03 07:27:59;;;;;;;77.00;48.30;;;;;;;8.47;88.88;100213.27;102964;1308;25282;-60
2024/03/03 07:30:24;;;;;;;;;;;;;;;8.55;88.96;100216.59;102907;1316;22641;-58
2024/03/03 07:32:50;;;;;;;76.60;47.30;;;;;;;8.57;88.81;100219.31;102929;1305;22569;-59
2024/03/03 07:35:25;;;;;;;79.10;48.40;;;;;;;8.61;89.04;100213.08;102945;1311;25059;-58
2024/03/03 07:37:51;;;;;;;78.10;48.20;;;;;;;8.73;89.04;100212.05;106962;1315;22449;-60
2024/03/03 07:40:17;;;;;;;73.70;46.90;;;;;;;8.83;88.98;100217.20;104134;1314;22730;-59
2024/03/03 07:42:54;;;;;;;74.50;45.60;;;;;;;8.92;89.08;100217.05;102894;1292;22538;-58
2024/03/03 07:45:20;;;;;;;73.40;46.80;;;;;;;8.90;88.75;100222.24;107086;1308;22259;-60
2024/03/03 07:47:45;;;;;;;73.80;46.90;;;;;;;8.92;88.95;100226.50;107080;1315;22267;-59
2024/03/03 07:50:11;;;;;;;73.70;47.30;;;;;;;9.02;88.81;100227.04;107127;1315;23064;-60
2024/03/03 07:52:37;;;;;;;75.60;45.80;;;;;;;9.07;88.53;100233.66;104298;1305;22666;-59
2024/03/03 07:55:05;;;;;;;77.70;48.60;;;;;;;9.10;88.70;100230.52;102794;1308;22776;-58
2024/03/03 07:57:31;;;;;;;75.50;46.60;;;;;;;9.14;88.89;100230.28;107152;1314;22245;-59
2024/03/03 07:59:57;;;;;;;76.30;48.30;;;;;;;9.27;89.17;100230.59;107107;1308;23342;-58
2024/03/03 08:02:23;;;;;;;76.60;48.00;;;;;;;9.39;88.89;100231.23;107085;1302;22426;-59
2024/03/03 08:04:52;;;;;;;75.00;47.60;;;;;;;9.51;88.99;100234.11;107148;1295;22581;-59
2024/03/03 08:07:18;;;;;;;74.00;47.70;;;;;;;9.67;89.11;100238.80;106906;1315;23507;-59
2024/03/03 08:09:44;;;;;;;70.10;47.90;;;;;;;9.80;89.02;100241.33;106928;1310;22267;-58
2024/03/03 08:12:09;;;;;;;72.20;46.30;;;;;;;10.06;88.88;100240.11;104568;1314;26473;-59
2024/03/03 08:14:35;;;;;;;64.40;43.20;;;;;;;10.43;89.06;100234.70;103011;1305;22561;-59
2024/03/03 08:17:00;;;;;;;69.40;45.60;;;;;;;10.83;88.73;100233.79;103010;1308;22562;-60
2024/03/03 08:19:27;;;;;;;63.30;44.30;;;;;;;11.24;89.00;100231.40;103092;1311;22561;-60
2024/03/03 08:21:55;;;;;;;58.60;43.20;;;;;;;11.75;88.62;100229.05;103047;1301;22562;-60
2024/03/03 08:24:21;;;;;;;62.70;41.10;;;;;;;12.14;87.67;100235.21;103105;1302;22605;-59
2024/03/03 08:26:48;;;;;;;60.60;41.80;;;;;;;12.52;87.90;100235.96;102895;1301;24342;-59
2024/03/03 08:29:13;;;;;;;77.70;42.50;;;;;;;13.02;88.35;100235.59;103121;1304;22555;-58
2024/03/03 08:31:41;;;;;;;126.40;42.30;;;;;;;13.70;88.05;100229.67;103173;1314;24403;-60
2024/03/03 08:34:24;;;;;;;233.50;53.60;;;;;;;14.34;88.36;100227.52;106446;1305;22583;-59
2024/03/03 08:36:50;;;;;;;147.80;46.40;;;;;;;14.92;88.70;100220.20;103211;1308;24319;-60
2024/03/03 08:39:19;;;;;;;95.10;38.40;;;;;;;15.28;88.54;100226.37;103201;1314;22562;-59
2024/03/03 08:41:45;;;;;;;96.20;40.20;;;;;;;15.38;85.94;100225.25;105461;1308;23044;-60
2024/03/03 08:44:18;;;;;;;105.10;46.70;;;;;;;15.33;84.26;100222.17;103315;1291;22579;-57
2024/03/03 08:46:47;;;;;;;322.70;52.90;;;;;;;15.46;87.46;100216.59;106155;1307;22727;-59
2024/03/03 08:49:22;;;;;;;;;;;;;;;;;;;;;
2024/03/03 08:51:52;;;;;;;134.50;45.30;;;;;;;15.38;85.47;100210.84;107142;1295;22998;-57
2024/03/03 08:54:18;;;;;;;103.10;42.30;;;;;;;15.64;87.41;100210.08;107146;1295;22424;-56
2024/03/03 08:56:44;;;;;;;196.60;45.40;;;;;;;15.93;87.34;100208.65;107156;1307;22245;-60
2024/03/03 08:59:10;;;;;;;251.30;51.30;;;;;;;16.06;86.25;100208.92;107019;1308;22397;-60
2024/03/03 09:02:20;;;;;;;158.70;44.00;;;;;;;16.12;85.80;100207.38;105241;1315;22764;-58
2024/03/03 09:04:44;;;;;;;364.90;53.60;;;;;;;16.23;82.27;100204.44;106518;1311;22365;-61
2024/03/03 09:07:13;;;;;;;216.40;53.00;;;;;;;16.32;79.82;100208.40;106576;1314;23752;-60
2024/03/03 09:09:53;;;;;;;240.00;50.50;;;;;;;16.38;82.72;100209.16;102606;1308;24393;-60
2024/03/03 09:12:22;;;;;;;304.00;51.90;;;;;;;16.67;84.72;100211.06;103014;1318;25446;-59
2024/03/03 09:14:55;;;;;;;406.00;54.50;;;;;;;17.06;84.23;100214.23;102586;1304;23687;-61
2024/03/03 09:17:30;;;;;;;;;;;;;;;;;;;;;
2024/03/03 09:20:16;;;;;;;379.00;54.00;;;;;;;17.99;82.73;100220.48;102488;1316;25383;-57
2024/03/03 09:22:42;;;;;;;498.40;61.50;;;;;;;18.35;82.17;100220.61;104256;1319;22744;-59
2024/03/03 09:25:31;;;;;;;226.50;47.40;;;;;;;18.66;80.95;100218.02;102352;1306;22659;-58
2024/03/03 09:28:01;;;;;;;457.70;55.60;;;;;;;18.68;71.61;100217.06;102597;1304;22583;-59
2024/03/03 09:30:27;;;;;;;288.60;42.60;;;;;;;18.57;74.35;100217.84;102517;1314;23093;-57
2024/03/03 09:32:56;;;;;;;339.00;46.10;;;;;;;17.77;68.21;100221.75;102524;1313;22564;-59
2024/03/03 09:35:22;;;;;;;161.40;36.80;;;;;;;17.29;68.07;100220.24;102455;1321;26689;-59
2024/03/03 09:37:49;;;;;;;416.60;54.80;;;;;;;16.98;71.20;100221.97;102418;1322;22589;-59
2024/03/03 09:40:22;;;;;;;490.50;54.40;;;;;;;17.59;73.90;100221.51;102433;1321;22565;-59
2024/03/03 09:43:08;;;;;;;548.10;59.50;;;;;;;18.57;69.29;100213.08;103008;1315;22639;-59
2024/03/03 09:45:55;;;;;;;605.80;59.10;;;;;;;19.19;74.14;100212.34;103286;1306;22658;-59
2024/03/03 09:48:22;;;;;;;578.60;58.30;;;;;;;19.72;74.21;100213.23;103060;1307;24244;-57
2024/03/03 09:51:01;;;;;;;;;;;;;;;;;;;;;
2024/03/03 09:53:37;;;;;;;366.80;51.40;;;;;;;19.68;72.52;100212.61;103068;1315;23162;-57
2024/03/03 09:56:07;;;;;;;486.30;53.20;;;;;;;19.62;73.52;100209.27;102759;1311;26379;-58
2024/03/03 09:58:33;;;;;;;389.60;49.20;;;;;;;20.18;71.32;100206.54;103433;1313;23930;-59
2024/03/03 10:01:03;;;;;;;569.40;55.60;;;;;;;20.78;72.62;100209.18;103074;1301;24244;-58
2024/03/03 10:03:38;;;;;;;664.10;60.10;;;;;;;21.76;68.70;100209.27;103052;1307;23226;-59
2024/03/03 10:06:29;;;;;;;584.50;55.40;;;;;;;22.02;68.78;100208.52;100378;1295;5004162;-59
2024/03/03 10:08:57;;;;;;;530.10;49.30;;;;;;;22.39;68.74;100208.19;103192;1315;23134;-58
2024/03/03 10:11:24;;;;;;;307.00;41.50;;;;;;;22.55;65.48;100206.52;103230;1315;24367;-59
2024/03/03 10:13:50;;;;;;;397.50;42.90;;;;;;;21.70;54.73;100206.85;102990;1311;22812;-57
2024/03/03 10:16:25;;;;;;;655.30;61.60;;;;;;;21.03;61.61;100205.81;103121;1298;25607;-57
2024/03/03 10:19:06;;;;;;;459.60;51.80;;;;;;;21.20;64.05;100203.66;103214;1312;22576;-59
2024/03/03 10:21:37;;;;;;;529.50;53.40;;;;;;;21.76;63.55;100194.20;103033;1315;23165;-58
2024/03/03 10:24:30;;;;;;;390.20;47.20;;;;;;;22.23;61.07;100191.40;103628;1315;22576;-58
2024/03/03 10:27:00;;;;;;;538.30;56.00;;;;;;;21.93;51.80;100192.28;103165;1298;26189;-59
2024/03/03 10:29:27;;;;;;;586.20;51.10;;;;;;;21.53;60.63;100188.21;103137;1308;25341;-57
2024/03/03 10:31:54;;;;;;;492.00;52.20;;;;;;;21.70;56.99;100188.48;102964;1315;530869;-59
2024/03/03 10:34:23;;;;;;;318.10;39.80;;;;;;;21.13;58.84;100190.95;103178;1309;22613;-59
2024/03/03 10:37:11;;;;;;;;;;;;;;;;;;;;;
2024/03/03 10:39:40;;;;;;;136.80;28.50;;;;;;;20.43;61.23;100189.23;103072;1300;22562;-59
2024/03/03 10:42:12;;;;;;;244.40;35.00;;;;;;;20.09;59.58;100183.30;103095;1310;22591;-58
2024/03/03 10:44:38;;;;;;;126.90;29.00;;;;;;;19.60;61.06;100184.95;103014;1307;24155;-60
2024/03/03 10:47:13;;;;;;;189.40;36.90;;;;;;;19.58;61.91;100184.17;102971;1314;24320;-59
2024/03/03 10:49:42;;;;;;;298.70;36.50;;;;;;;19.80;59.56;100180.76;103183;1315;25265;-59
2024/03/03 10:52:12;;;;;;;173.50;32.10;;;;;;;19.62;58.77;100173.80;103215;1297;25258;-59
2024/03/03 10:54:38;;;;;;;226.20;31.30;;;;;;;19.99;60.73;100174.50;103083;1300;25075;-59
2024/03/03 10:57:08;;;;;;;480.20;52.50;;;;;;;20.17;60.00;100172.80;99754;1292;5002850;-59
2024/03/03 10:59:35;;;;;;;180.00;29.20;;;;;;;20.76;59.56;100174.64;104415;1301;23817;-59
2024/03/03 11:02:02;;;;;;;190.60;37.90;;;;;;;21.31;58.22;100168.52;103278;1297;22516;-59
2024/03/03 11:04:33;;;;;;;313.40;38.90;;;;;;;21.92;57.46;100163.41;103913;1308;22579;-57
2024/03/03 11:07:02;;;;;;;253.40;40.40;;;;;;;21.59;58.81;100166.05;105046;1291;22562;-61
2024/03/03 11:09:39;;;;;;;240.90;41.60;;;;;;;21.37;59.32;100166.67;103672;1311;22562;-59
2024/03/03 11:12:06;;;;;;;662.90;64.40;;;;;;;22.05;59.76;100165.67;102513;1307;22990;-60